Time;durP1;ratioP1;P1;durP2;ratioP2;P2;SDS_P1;SDS_P2;PMS_P1;PMS_P2;Temp;Humidity;BMP_temperature;BMP_pressure;BME280_temperature;BME280_humidity;BME280_pressure;Samples;Min_cycle;Max_cycle;Signal;HPM_P1;HPM_P2
2023/04/08 00:00:59;;;;;;;;;;;;;;;-140.72;100.00;52910.34;5018577;28;19921;-70
2023/04/08 00:03:25;;;;;;;;;;;;;;;-140.72;100.00;52894.13;5020044;28;20008;-70
2023/04/08 00:05:57;;;;;;;;;;;;;;;-140.72;100.00;52912.38;5029745;28;20005;-70
2023/04/08 00:08:22;;;;;;;;;;;;;;;-140.72;100.00;52950.94;5030848;28;19997;-70
2023/04/08 00:10:53;;;;;;;;;;;;;;;-140.72;100.00;52928.63;5015833;28;20352;-70
2023/04/08 00:13:18;;;;;;;;;;;;;;;-140.72;100.00;52922.53;5021708;28;19923;-69
2023/04/08 00:15:43;;;;;;;;;;;;;;;-140.72;100.00;52955.00;5021993;28;20298;-69
2023/04/08 00:18:09;;;;;;;;;;;;;;;-140.72;100.00;52904.25;5031421;28;20287;-70
2023/04/08 00:20:34;;;;;;;;;;;;;;;-140.72;100.00;52950.94;5026369;28;19964;-71
2023/04/08 00:22:59;;;;;;;;;;;;;;;-140.72;100.00;52934.69;5037711;27;19917;-70
2023/04/08 00:28:17;;;;;;;;;;;;;;;-140.72;100.00;52932.66;5016911;28;19948;-70
2023/04/08 00:30:43;;;;;;;;;;;;;;;-140.72;100.00;52894.13;5020028;28;19987;-70
2023/04/08 00:33:08;;;;;;;;;;;;;;;-140.72;100.00;52886.00;5029325;28;19978;-70
2023/04/08 00:35:34;;;;;;;;;;;;;;;-140.72;100.00;52910.34;5031264;28;19929;-70
2023/04/08 00:38:00;;;;;;;;;;;;;;;-140.72;100.00;52918.47;5020889;28;20020;-71
2023/04/08 00:40:25;;;;;;;;;;;;;;;-140.72;100.00;52940.78;5030858;28;19917;-71
2023/04/08 00:42:50;;;;;;;;;;;;;;;-140.72;100.00;52918.47;5026761;28;19965;-70
2023/04/08 00:45:16;;;;;;;;;;;;;;;-140.72;100.00;52932.66;5030594;28;20065;-70
2023/04/08 00:47:41;;;;;;;;;;;;;;;-140.72;100.00;52926.59;5030461;28;19963;-70
2023/04/08 00:50:08;;;;;;;;;;;;;;;-140.72;100.00;52934.69;5039900;28;19916;-70
2023/04/08 00:52:33;;;;;;;;;;;;;;;-140.72;100.00;52930.66;5035901;28;19916;-70
2023/04/08 00:54:58;;;;;;;;;;;;;;;-140.72;100.00;52948.91;5040518;28;19924;-70
2023/04/08 00:57:24;;;;;;;;;;;;;;;-140.72;100.00;52928.63;5039217;28;20009;-70
2023/04/08 00:59:49;;;;;;;;;;;;;;;-140.72;100.00;52965.16;5039779;28;19928;-70
2023/04/08 01:02:22;;;;;;;;;;;;;;;-140.72;100.00;52898.16;5029661;28;19968;-70
2023/04/08 01:04:48;;;;;;;;;;;;;;;-140.72;100.00;52938.75;5040355;28;19966;-70
2023/04/08 01:07:13;;;;;;;;;;;;;;;-140.72;100.00;52914.41;5031024;28;19921;-69
2023/04/08 01:09:43;;;;;;;;;;;;;;;-140.72;100.00;52922.53;5029825;28;19929;-70
2023/04/08 01:12:12;;;;;;;;;;;;;;;-140.72;100.00;52928.63;5026904;28;20162;-70
2023/04/08 01:14:41;;;;;;;;;;;;;;;-140.72;100.00;52918.47;5026945;28;19921;-70
2023/04/08 01:17:07;;;;;;;;;;;;;;;-140.72;100.00;52914.41;5030011;28;19931;-70
2023/04/08 01:19:34;;;;;;;;;;;;;;;-140.72;100.00;52910.34;5030288;28;19933;-70
2023/04/08 01:22:09;;;;;;;;;;;;;;;-140.72;100.00;52916.44;5026765;28;19926;-70
2023/04/08 01:24:37;;;;;;;;;;;;;;;-140.72;100.00;52898.16;5030102;28;20368;-70
2023/04/08 01:27:04;;;;;;;;;;;;;;;-140.72;100.00;52902.22;5041538;28;19951;-70
2023/04/08 01:29:30;;;;;;;;;;;;;;;-140.72;100.00;52940.78;5030397;28;20291;-70
2023/04/08 01:31:56;;;;;;;;;;;;;;;-140.72;100.00;52934.69;5022611;28;19913;-70
2023/04/08 01:34:22;;;;;;;;;;;;;;;-140.72;100.00;52952.97;5029312;28;19928;-70
2023/04/08 01:36:48;;;;;;;;;;;;;;;-140.72;100.00;52908.31;5028207;28;19917;-70
2023/04/08 01:39:15;;;;;;;;;;;;;;;-140.72;100.00;52881.94;5035527;28;19921;-70
2023/04/08 01:41:40;;;;;;;;;;;;;;;-140.72;100.00;52930.66;5028477;28;19913;-70
2023/04/08 01:44:32;;;;;;;;;;;;;;;-140.72;100.00;52934.69;5031846;28;20058;-70
2023/04/08 01:46:57;;;;;;;;;;;;;;;-140.72;100.00;52952.97;5029199;28;20000;-70
2023/04/08 01:49:23;;;;;;;;;;;;;;;-140.72;100.00;52942.81;5028519;28;20024;-70
2023/04/08 01:51:52;;;;;;;;;;;;;;;-140.72;100.00;52922.53;5023546;28;20340;-70
2023/04/08 01:54:17;;;;;;;;;;;;;;;-140.72;100.00;52934.69;5025755;28;19917;-70
2023/04/08 01:57:08;;;;;;;;;;;;;;;-140.72;100.00;52922.53;5017529;28;19917;-70
2023/04/08 01:59:35;;;;;;;;;;;;;;;-140.72;100.00;52924.56;5038486;28;19917;-69
2023/04/08 02:02:02;;;;;;;;;;;;;;;-140.72;100.00;52928.63;5029072;28;19969;-69
2023/04/08 02:04:27;;;;;;;;;;;;;;;-140.72;100.00;52928.63;5025936;28;20392;-69
2023/04/08 02:06:52;;;;;;;;;;;;;;;-140.72;100.00;52955.00;5026216;28;20004;-70
2023/04/08 02:09:18;;;;;;;;;;;;;;;-140.72;100.00;52936.72;5018737;28;19925;-70
2023/04/08 02:11:43;;;;;;;;;;;;;;;-140.72;100.00;52948.91;5023395;28;19921;-70
2023/04/08 02:14:08;;;;;;;;;;;;;;;-140.72;100.00;52955.00;5021912;28;19924;-70
2023/04/08 02:16:47;;;;;;;;;;;;;;;-140.72;100.00;52965.16;5027269;28;19953;-70
2023/04/08 02:19:28;;;;;;;;;;;;;;;-140.72;100.00;52950.94;5027582;28;19921;-70
2023/04/08 02:22:01;;;;;;;;;;;;;;;-140.72;100.00;52959.06;5027948;28;19921;-70
2023/04/08 02:24:26;;;;;;;;;;;;;;;-140.72;100.00;52963.13;5034715;28;19920;-70
2023/04/08 02:26:54;;;;;;;;;;;;;;;-140.72;100.00;52892.09;5014294;28;19967;-70
2023/04/08 02:29:20;;;;;;;;;;;;;;;-140.72;100.00;52967.16;5024135;28;19970;-70
2023/04/08 02:31:45;;;;;;;;;;;;;;;-140.72;100.00;52906.28;5030093;28;20371;-69
2023/04/08 02:34:11;;;;;;;;;;;;;;;-140.72;100.00;52942.81;5097922;28;19919;-70
2023/04/08 02:36:37;;;;;;;;;;;;;;;-140.72;100.00;52944.84;5029046;28;19913;-70
2023/04/08 02:39:03;;;;;;;;;;;;;;;-140.72;100.00;52928.63;5028897;28;19917;-70
2023/04/08 02:41:29;;;;;;;;;;;;;;;-140.72;100.00;52985.44;5028679;28;19913;-70
2023/04/08 02:43:54;;;;;;;;;;;;;;;-140.72;100.00;52938.75;5013529;28;19975;-70
2023/04/08 02:46:19;;;;;;;;;;;;;;;-140.72;100.00;52963.13;5032042;28;20255;-71
2023/04/08 02:48:44;;;;;;;;;;;;;;;-140.72;100.00;52963.13;5030176;28;19921;-70
2023/04/08 02:51:10;;;;;;;;;;;;;;;-140.72;100.00;52967.16;5029570;28;20636;-70
2023/04/08 02:53:35;;;;;;;;;;;;;;;-140.72;100.00;52934.69;5030079;28;19928;-69
2023/04/08 02:56:00;;;;;;;;;;;;;;;-140.72;100.00;52959.06;5028909;28;19925;-69
2023/04/08 02:58:26;;;;;;;;;;;;;;;-140.72;100.00;52932.66;5029660;28;19986;-70
2023/04/08 03:00:51;;;;;;;;;;;;;;;-140.72;100.00;52971.22;5012521;28;20029;-70
2023/04/08 03:03:16;;;;;;;;;;;;;;;-140.72;100.00;53005.72;5024625;28;19922;-70
2023/04/08 03:05:41;;;;;;;;;;;;;;;-140.72;100.00;52940.78;5024845;28;19926;-70
2023/04/08 03:08:07;;;;;;;;;;;;;;;-140.72;100.00;52948.91;5031439;28;19921;-70
2023/04/08 03:10:32;;;;;;;;;;;;;;;-140.72;100.00;52944.84;5029054;28;20004;-70
2023/04/08 03:12:57;;;;;;;;;;;;;;;-140.72;100.00;52963.13;5020923;28;19974;-70
2023/04/08 03:15:22;;;;;;;;;;;;;;;-140.72;100.00;52959.06;5016980;28;19917;-70
2023/04/08 03:17:48;;;;;;;;;;;;;;;-140.72;100.00;52950.94;5025473;28;19963;-70
2023/04/08 03:20:13;;;;;;;;;;;;;;;-140.72;100.00;52950.94;5020706;28;19925;-70
2023/04/08 03:22:38;;;;;;;;;;;;;;;-140.72;100.00;52959.06;5036147;28;19924;-70
2023/04/08 03:25:03;;;;;;;;;;;;;;;-140.72;100.00;52936.72;5029373;28;19928;-70
2023/04/08 03:27:29;;;;;;;;;;;;;;;-140.72;100.00;52963.13;5030662;28;19965;-70
2023/04/08 03:29:56;;;;;;;;;;;;;;;-140.72;100.00;52967.16;5032940;28;20057;-70
2023/04/08 03:32:21;;;;;;;;;;;;;;;-140.72;100.00;52936.72;5036559;28;19931;-69
2023/04/08 03:34:49;;;;;;;;;;;;;;;-140.72;100.00;52971.22;5032626;28;19917;-69
2023/04/08 03:37:15;;;;;;;;;;;;;;;-140.72;100.00;53013.84;5047868;28;19921;-70
2023/04/08 03:39:40;;;;;;;;;;;;;;;-140.72;100.00;52942.81;5036384;27;19917;-70
2023/04/08 03:42:05;;;;;;;;;;;;;;;-140.72;100.00;52944.84;5041891;28;20273;-70
2023/04/08 03:44:30;;;;;;;;;;;;;;;-140.72;100.00;52963.13;5028627;28;19925;-70
2023/04/08 03:46:56;;;;;;;;;;;;;;;-140.72;100.00;52983.41;5013143;28;19917;-70
2023/04/08 03:49:21;;;;;;;;;;;;;;;-140.72;100.00;52948.91;5028809;28;19925;-69
2023/04/08 03:51:46;;;;;;;;;;;;;;;-140.72;100.00;52955.00;5032638;28;20371;-70
2023/04/08 03:54:12;;;;;;;;;;;;;;;-140.72;100.00;52946.88;5030060;28;19921;-69
2023/04/08 03:56:37;;;;;;;;;;;;;;;-140.72;100.00;52938.75;5024021;28;20379;-69
2023/04/08 03:59:02;;;;;;;;;;;;;;;-140.72;100.00;52928.63;5030684;28;19949;-70
2023/04/08 04:01:29;;;;;;;;;;;;;;;-140.72;100.00;52975.28;5029695;28;19922;-70
2023/04/08 04:03:54;;;;;;;;;;;;;;;-140.72;100.00;52952.97;5059277;27;20441;-71
2023/04/08 04:06:19;;;;;;;;;;;;;;;-140.72;100.00;52979.34;5046773;27;19917;-71
2023/04/08 04:08:45;;;;;;;;;;;;;;;-140.72;100.00;52977.31;5029426;27;19921;-70
2023/04/08 04:11:10;;;;;;;;;;;;;;;-140.72;100.00;52973.25;5024243;28;20394;-70
2023/04/08 04:13:35;;;;;;;;;;;;;;;-140.72;100.00;52975.28;5031132;28;20026;-70
2023/04/08 04:16:01;;;;;;;;;;;;;;;-140.72;100.00;52979.34;5022002;28;19922;-70
2023/04/08 04:18:26;;;;;;;;;;;;;;;-140.72;100.00;52983.41;5022970;28;19921;-70
2023/04/08 04:20:51;;;;;;;;;;;;;;;-140.72;100.00;52965.16;5035315;28;19925;-70
2023/04/08 04:23:17;;;;;;;;;;;;;;;-140.72;100.00;52971.22;5032910;28;19918;-70
2023/04/08 04:25:43;;;;;;;;;;;;;;;-140.72;100.00;52940.78;5021706;28;20268;-70
2023/04/08 04:28:08;;;;;;;;;;;;;;;-140.72;100.00;52989.50;5031762;28;19923;-70
2023/04/08 04:30:37;;;;;;;;;;;;;;;-140.72;100.00;52926.59;5031767;28;19963;-70
2023/04/08 04:33:02;;;;;;;;;;;;;;;-140.72;100.00;52969.19;5034833;28;20014;-70
2023/04/08 04:35:28;;;;;;;;;;;;;;;-140.72;100.00;52967.16;5031131;28;19921;-70
2023/04/08 04:37:53;;;;;;;;;;;;;;;-140.72;100.00;52975.28;5022131;28;19917;-70
2023/04/08 04:40:18;;;;;;;;;;;;;;;-140.72;100.00;52973.25;5021536;28;20299;-71
2023/04/08 04:42:43;;;;;;;;;;;;;;;-140.72;100.00;52975.28;5043786;28;19929;-71
2023/04/08 04:45:09;;;;;;;;;;;;;;;-140.72;100.00;52991.53;5030563;28;20335;-76
2023/04/08 04:47:34;;;;;;;;;;;;;;;-140.72;100.00;52993.56;5025227;28;20484;-73
2023/04/08 04:50:00;;;;;;;;;;;;;;;-140.72;100.00;52965.16;5022218;28;20123;-72
2023/04/08 04:52:25;;;;;;;;;;;;;;;-140.72;100.00;52987.47;5039366;28;19924;-77
2023/04/08 04:54:50;;;;;;;;;;;;;;;-140.72;100.00;52973.25;5027528;28;19971;-70
2023/04/08 04:57:15;;;;;;;;;;;;;;;-140.72;100.00;52977.31;5040464;28;19932;-70
2023/04/08 04:59:41;;;;;;;;;;;;;;;-140.72;100.00;52977.31;5023210;28;19921;-70
2023/04/08 05:02:06;;;;;;;;;;;;;;;-140.72;100.00;52997.63;5025571;28;19925;-71
2023/04/08 05:04:31;;;;;;;;;;;;;;;-140.72;100.00;52971.22;5020932;28;19925;-70
2023/04/08 05:06:58;;;;;;;;;;;;;;;-140.72;100.00;52967.16;5021265;28;19987;-70
2023/04/08 05:09:23;;;;;;;;;;;;;;;-140.72;100.00;52973.25;5022101;28;20100;-70
2023/04/08 05:11:48;;;;;;;;;;;;;;;-140.72;100.00;52999.66;5017193;28;20391;-70
2023/04/08 05:14:13;;;;;;;;;;;;;;;-140.72;100.00;52983.41;5023710;28;19929;-70
2023/04/08 05:16:38;;;;;;;;;;;;;;;-140.72;100.00;52977.31;5026958;28;19921;-70
2023/04/08 05:19:04;;;;;;;;;;;;;;;-140.72;100.00;52995.59;5021878;28;19917;-70
2023/04/08 05:21:29;;;;;;;;;;;;;;;-140.72;100.00;52991.53;5020449;28;19917;-71
2023/04/08 05:23:54;;;;;;;;;;;;;;;-140.72;100.00;52983.41;5022253;28;19929;-70
2023/04/08 05:26:22;;;;;;;;;;;;;;;-140.72;100.00;53019.94;5029108;28;19928;-70
2023/04/08 05:28:48;;;;;;;;;;;;;;;-140.72;100.00;52967.16;5031053;28;19921;-70
2023/04/08 05:31:17;;;;;;;;;;;;;;;-140.72;100.00;52955.00;5033877;28;19917;-70
2023/04/08 05:33:42;;;;;;;;;;;;;;;-140.72;100.00;53017.91;5025504;28;19921;-72
2023/04/08 05:36:07;;;;;;;;;;;;;;;-140.72;100.00;52965.16;5022408;28;19928;-71
2023/04/08 05:38:32;;;;;;;;;;;;;;;-140.72;100.00;52985.44;5029533;28;20042;-71
2023/04/08 05:40:58;;;;;;;;;;;;;;;-140.72;100.00;53007.75;5029331;28;19917;-70
2023/04/08 05:43:23;;;;;;;;;;;;;;;-140.72;100.00;53011.81;5042290;27;19925;-70
2023/04/08 05:45:48;;;;;;;;;;;;;;;-140.72;100.00;53001.66;5024570;28;19921;-70
2023/04/08 05:48:14;;;;;;;;;;;;;;;-140.72;100.00;52985.44;5030641;28;20346;-70
2023/04/08 05:50:39;;;;;;;;;;;;;;;-140.72;100.00;52991.53;5034405;28;20427;-70
2023/04/08 05:53:04;;;;;;;;;;;;;;;-140.72;100.00;53001.66;5029646;28;20028;-70
2023/04/08 05:55:30;;;;;;;;;;;;;;;-140.72;100.00;53024.00;5022028;28;20283;-71
2023/04/08 05:57:55;;;;;;;;;;;;;;;-140.72;100.00;52987.47;5042549;28;19961;-71
2023/04/08 06:00:21;;;;;;;;;;;;;;;-140.72;100.00;52952.97;5019850;28;19929;-71
2023/04/08 06:02:46;;;;;;;;;;;;;;;-140.72;100.00;53019.94;5032320;28;20070;-71
2023/04/08 06:05:11;;;;;;;;;;;;;;;-140.72;100.00;52987.47;5015056;28;19922;-71
2023/04/08 06:07:36;;;;;;;;;;;;;;;-140.72;100.00;53003.69;5030788;28;19939;-71
2023/04/08 06:10:02;;;;;;;;;;;;;;;-140.72;100.00;53019.94;5030387;28;19917;-71
2023/04/08 06:12:27;;;;;;;;;;;;;;;-140.72;100.00;53009.78;5032925;28;19927;-71
2023/04/08 06:14:53;;;;;;;;;;;;;;;-140.72;100.00;52991.53;5037661;28;19917;-71
2023/04/08 06:17:18;;;;;;;;;;;;;;;-140.72;100.00;52983.41;5020510;28;19969;-70
2023/04/08 06:19:44;;;;;;;;;;;;;;;-140.72;100.00;52979.34;5021616;28;20336;-70
2023/04/08 06:22:09;;;;;;;;;;;;;;;-140.72;100.00;53024.00;5019302;28;19982;-70
2023/04/08 06:24:34;;;;;;;;;;;;;;;-140.72;100.00;52952.97;5016952;28;20012;-69
2023/04/08 06:26:59;;;;;;;;;;;;;;;-140.72;100.00;52967.16;5033350;28;20368;-70
2023/04/08 06:29:25;;;;;;;;;;;;;;;-140.72;100.00;52975.28;5024025;28;20385;-70
2023/04/08 06:31:50;;;;;;;;;;;;;;;-140.72;100.00;52987.47;5023737;28;20375;-71
2023/04/08 06:34:15;;;;;;;;;;;;;;;-140.72;100.00;53003.69;5036245;28;20383;-72
2023/04/08 06:36:40;;;;;;;;;;;;;;;-140.72;100.00;52967.16;5022764;28;19917;-70
2023/04/08 06:39:06;;;;;;;;;;;;;;;-140.72;100.00;52993.56;5034773;28;19917;-70
2023/04/08 06:41:31;;;;;;;;;;;;;;;-140.72;100.00;53001.66;5025531;28;19948;-70
2023/04/08 06:43:56;;;;;;;;;;;;;;;-140.72;100.00;52991.53;5024780;28;19921;-70
2023/04/08 06:46:21;;;;;;;;;;;;;;;-140.72;100.00;52983.41;5072523;28;20340;-71
2023/04/08 06:48:47;;;;;;;;;;;;;;;-140.72;100.00;53007.75;5035637;28;20333;-71
2023/04/08 06:51:12;;;;;;;;;;;;;;;-140.72;100.00;52975.28;5015874;28;20260;-71
2023/04/08 06:53:37;;;;;;;;;;;;;;;-140.72;100.00;52975.28;5029671;28;20337;-71
2023/04/08 06:56:03;;;;;;;;;;;;;;;-140.72;100.00;52983.41;5028862;28;19918;-71
2023/04/08 06:58:28;;;;;;;;;;;;;;;-140.72;100.00;52997.63;5028410;28;19924;-72
2023/04/08 07:00:57;;;;;;;;;;;;;;;-140.72;100.00;52940.78;5028768;28;19921;-72
2023/04/08 07:03:22;;;;;;;;;;;;;;;-140.72;100.00;52938.75;5028931;28;19921;-71
2023/04/08 07:05:47;;;;;;;;;;;;;;;-140.72;100.00;52987.47;5031419;28;19966;-71
2023/04/08 07:08:12;;;;;;;;;;;;;;;-140.72;100.00;52957.03;5029490;28;20424;-71
2023/04/08 07:10:38;;;;;;;;;;;;;;;-140.72;100.00;52967.16;5031541;28;19929;-71
2023/04/08 07:13:03;;;;;;;;;;;;;;;-140.72;100.00;52967.16;5034042;28;20000;-71
2023/04/08 07:15:28;;;;;;;;;;;;;;;-140.72;100.00;52938.75;5031400;28;19918;-70
2023/04/08 07:17:57;;;;;;;;;;;;;;;-140.72;100.00;52955.00;5029266;28;19927;-72
2023/04/08 07:20:22;;;;;;;;;;;;;;;-140.72;100.00;52900.19;5033119;28;19924;-71
2023/04/08 07:22:48;;;;;;;;;;;;;;;-140.72;100.00;52922.53;5024925;28;20004;-70
2023/04/08 07:25:13;;;;;;;;;;;;;;;-140.72;100.00;52938.75;5020558;28;19947;-71
2023/04/08 07:27:38;;;;;;;;;;;;;;;-140.72;100.00;52934.69;5035178;28;19988;-70
2023/04/08 07:30:08;;;;;;;;;;;;;;;-140.72;100.00;52955.00;5021775;28;19918;-70
2023/04/08 07:32:33;;;;;;;;;;;;;;;-140.72;100.00;52916.44;5025379;28;19924;-76
2023/04/08 07:34:59;;;;;;;;;;;;;;;-140.72;100.00;52940.78;5020686;28;19917;-73
2023/04/08 07:37:25;;;;;;;;;;;;;;;-140.72;100.00;52924.56;5033875;28;20438;-73
2023/04/08 07:39:50;;;;;;;;;;;;;;;-140.72;100.00;52916.44;5020732;28;19929;-72
2023/04/08 07:42:15;;;;;;;;;;;;;;;-140.72;100.00;52914.41;5034877;28;19924;-74
2023/04/08 07:44:40;;;;;;;;;;;;;;;-140.72;100.00;52914.41;5028356;28;19924;-74
2023/04/08 07:47:06;;;;;;;;;;;;;;;-140.72;100.00;52928.63;5029452;28;20015;-72
2023/04/08 07:49:31;;;;;;;;;;;;;;;-140.72;100.00;52914.41;5030600;28;20396;-69
2023/04/08 07:51:56;;;;;;;;;;;;;;;-140.72;100.00;52883.97;5032252;28;19917;-71
2023/04/08 07:54:21;;;;;;;;;;;;;;;-140.72;100.00;52942.81;5031195;28;19927;-71
2023/04/08 07:56:46;;;;;;;;;;;;;;;-140.72;100.00;52914.41;5025752;28;19921;-71
2023/04/08 07:59:12;;;;;;;;;;;;;;;-140.72;100.00;52906.28;5026313;28;19922;-71
2023/04/08 08:01:37;;;;;;;;;;;;;;;-140.72;100.00;52898.16;5020308;28;19922;-69
2023/04/08 08:04:03;;;;;;;;;;;;;;;-140.72;100.00;52926.59;5032300;28;19918;-69
2023/04/08 08:06:28;;;;;;;;;;;;;;;-140.72;100.00;52881.94;5035023;28;19917;-68
2023/04/08 08:08:54;;;;;;;;;;;;;;;-140.72;100.00;52936.72;5026746;28;19967;-69
2023/04/08 08:11:20;;;;;;;;;;;;;;;-140.72;100.00;52861.66;5022004;28;19928;-69
2023/04/08 08:13:45;;;;;;;;;;;;;;;-140.72;100.00;52865.69;5029591;28;19966;-69
2023/04/08 08:16:10;;;;;;;;;;;;;;;-140.72;100.00;52894.13;5028164;28;19925;-69
2023/04/08 08:18:36;;;;;;;;;;;;;;;-140.72;100.00;52904.25;5029868;28;19917;-70
2023/04/08 08:21:01;;;;;;;;;;;;;;;-140.72;100.00;52837.28;5023332;28;19932;-69
2023/04/08 08:23:26;;;;;;;;;;;;;;;-140.72;100.00;52910.34;5030208;28;19917;-69
2023/04/08 08:25:58;;;;;;;;;;;;;;;-140.72;100.00;52853.53;5034759;28;19980;-69
2023/04/08 08:28:23;;;;;;;;;;;;;;;-140.72;100.00;52892.09;5030692;28;19933;-69
2023/04/08 08:30:49;;;;;;;;;;;;;;;-140.72;100.00;52867.72;5039082;28;19970;-69
2023/04/08 08:33:14;;;;;;;;;;;;;;;-140.72;100.00;52908.31;5032548;28;19916;-68
2023/04/08 08:35:40;;;;;;;;;;;;;;;-140.72;100.00;52888.03;5034854;28;20371;-69
2023/04/08 08:38:05;;;;;;;;;;;;;;;-140.72;100.00;52900.19;5030874;28;19921;-69
2023/04/08 08:40:30;;;;;;;;;;;;;;;-140.72;100.00;52837.28;5030497;28;19917;-69
2023/04/08 08:42:57;;;;;;;;;;;;;;;-140.72;100.00;52881.94;5030404;28;19917;-69
2023/04/08 08:45:23;;;;;;;;;;;;;;;-140.72;100.00;52910.34;5029835;28;19917;-70
2023/04/08 08:47:48;;;;;;;;;;;;;;;-140.72;100.00;52865.69;5028039;28;19921;-69
2023/04/08 08:50:14;;;;;;;;;;;;;;;-140.72;100.00;52808.88;5021897;28;20419;-69
2023/04/08 08:52:46;;;;;;;;;;;;;;;-140.72;100.00;52851.50;5020877;28;19921;-70
2023/04/08 08:55:12;;;;;;;;;;;;;;;-140.72;100.00;52835.25;5029027;28;19940;-70
2023/04/08 08:57:37;;;;;;;;;;;;;;;-140.72;100.00;52855.56;5027351;28;19921;-74
2023/04/08 09:00:02;;;;;;;;;;;;;;;-140.72;100.00;52833.22;5018738;28;19925;-70
2023/04/08 09:02:29;;;;;;;;;;;;;;;-140.72;100.00;52849.47;5019752;28;19928;-70
2023/04/08 09:05:03;;;;;;;;;;;;;;;-140.72;100.00;52857.59;5094418;27;19926;-69
2023/04/08 09:07:30;;;;;;;;;;;;;;;-140.72;100.00;52853.53;5031267;28;19925;-69
2023/04/08 09:09:56;;;;;;;;;;;;;;;-140.72;100.00;52855.56;5027981;28;20367;-70
2023/04/08 09:12:22;;;;;;;;;;;;;;;-140.72;100.00;52833.22;5030062;28;19944;-70
2023/04/08 09:14:47;;;;;;;;;;;;;;;-140.72;100.00;52821.06;5031269;28;20363;-70
2023/04/08 09:17:13;;;;;;;;;;;;;;;-140.72;100.00;52849.47;5026990;28;20356;-70
2023/04/08 09:19:38;;;;;;;;;;;;;;;-140.72;100.00;52800.75;5018495;27;19963;-70
2023/04/08 09:22:08;;;;;;;;;;;;;;;-140.72;100.00;52735.81;5023857;28;20343;-70
2023/04/08 09:24:33;;;;;;;;;;;;;;;-140.72;100.00;52707.41;5020493;28;19960;-71
2023/04/08 09:26:59;;;;;;;;;;;;;;;-140.72;100.00;52683.06;5026928;28;20481;-69
2023/04/08 09:29:26;;;;;;;;;;;;;;;-140.72;100.00;52648.56;5026222;28;19944;-70
2023/04/08 09:31:58;;;;;;;;;;;;;;;-140.72;100.00;52660.75;5028443;28;19972;-70
2023/04/08 09:34:24;;;;;;;;;;;;;;;-140.72;100.00;52674.94;5029830;28;19921;-72
2023/04/08 09:37:05;;;;;;;;;;;;;;;-140.72;100.00;52685.09;5035984;28;19917;-70
2023/04/08 09:39:31;;;;;;;;;;;;;;;-140.72;100.00;52652.63;5025867;28;19924;-71
2023/04/08 09:41:57;;;;;;;;;;;;;;;-140.72;100.00;52638.41;5024431;28;19917;-71
2023/04/08 09:44:25;;;;;;;;;;;;;;;-140.72;100.00;52674.94;5024204;28;20299;-70
2023/04/08 09:46:51;;;;;;;;;;;;;;;-140.72;100.00;52620.16;5029790;28;19924;-74
2023/04/08 09:49:20;;;;;;;;;;;;;;;-140.72;100.00;52634.38;5049512;28;19927;-74
2023/04/08 09:51:45;;;;;;;;;;;;;;;-140.72;100.00;52618.13;5028836;28;20033;-74
2023/04/08 09:54:13;;;;;;;;;;;;;;;-140.72;0.00;52601.91;5029528;28;19979;-72
2023/04/08 09:56:40;;;;;;;;;;;;;;;-140.72;0.00;52626.25;5029261;28;20353;-73
2023/04/08 09:59:13;;;;;;;;;;;;;;;-140.72;0.00;52571.47;5028379;28;19958;-70
2023/04/08 10:01:43;;;;;;;;;;;;;;;-140.72;0.00;52591.75;5017282;28;20367;-70
2023/04/08 10:04:11;;;;;;;;;;;;;;;-140.72;0.00;52547.09;5013546;28;19925;-70
2023/04/08 10:06:37;;;;;;;;;;;;;;;-140.72;0.00;52551.16;5020306;28;19963;-70
2023/04/08 10:09:03;;;;;;;;;;;;;;;-140.72;0.00;52561.31;5022985;28;19925;-71
2023/04/08 10:11:29;;;;;;;;;;;;;;;-140.72;0.00;52553.19;5020277;28;19950;-70
2023/04/08 10:13:54;;;;;;;;;;;;;;;-140.72;0.00;52587.69;5025663;28;20436;-71
2023/04/08 10:16:20;;;;;;;;;;;;;;;-140.72;0.00;52528.84;5021595;28;19966;-71
2023/04/08 10:18:46;;;;;;;;;;;;;;;-140.72;0.00;52508.56;5028915;28;19970;-70
2023/04/08 10:21:30;;;;;;;;;;;;;;;-140.72;0.00;52490.28;5030030;28;19925;-71
2023/04/08 10:23:58;;;;;;;;;;;;;;;-140.72;0.00;52518.69;5017329;28;19924;-71
2023/04/08 10:26:32;;;;;;;;;;;;;;;-140.72;0.00;52480.16;5038224;28;19953;-70
2023/04/08 10:29:16;;;;;;;;;;;;;;;-140.72;0.00;52512.59;5022908;28;19924;-70
2023/04/08 10:31:41;;;;;;;;;;;;;;;-140.72;0.00;52536.97;5012850;28;19917;-69
2023/04/08 10:34:18;;;;;;;;;;;;;;;-140.72;0.00;52488.25;5022538;28;20035;-69
2023/04/08 10:36:44;;;;;;;;;;;;;;;-140.72;0.00;52484.19;5029734;28;19917;-69
2023/04/08 10:39:11;;;;;;;;;;;;;;;-140.72;0.00;52451.72;5037537;28;19924;-70
2023/04/08 10:41:42;;;;;;;;;;;;;;;-140.72;0.00;52415.22;5026755;28;19925;-70
2023/04/08 10:44:20;;;;;;;;;;;;;;;-140.72;0.00;52415.22;5026920;28;19921;-70
2023/04/08 10:46:46;;;;;;;;;;;;;;;-140.72;0.00;52423.31;5024134;28;19921;-70
2023/04/08 10:49:12;;;;;;;;;;;;;;;-140.72;0.00;52386.81;5027118;28;19925;-71
2023/04/08 10:51:38;;;;;;;;;;;;;;;-140.72;0.00;52403.03;5032209;28;19962;-70
2023/04/08 10:54:11;;;;;;;;;;;;;;;-140.72;0.00;52388.84;5029468;28;19921;-70
2023/04/08 10:56:44;;;;;;;;;;;;;;;-140.72;0.00;52360.44;5032351;28;20000;-70
2023/04/08 10:59:10;;;;;;;;;;;;;;;-140.72;0.00;52358.41;5025000;28;19924;-70
2023/04/08 11:01:39;;;;;;;;;;;;;;;-140.72;0.00;52386.81;5024727;28;19921;-70
2023/04/08 11:04:14;;;;;;;;;;;;;;;-140.72;0.00;52311.72;5023891;28;19921;-71
2023/04/08 11:06:41;;;;;;;;;;;;;;;-140.72;0.00;52252.88;5031742;28;19968;-70
2023/04/08 11:09:07;;;;;;;;;;;;;;;-140.72;0.00;52330.00;5031796;28;19917;-70
2023/04/08 11:11:33;;;;;;;;;;;;;;;-140.72;0.00;52321.88;5028587;28;19966;-70
2023/04/08 11:13:58;;;;;;;;;;;;;;;-140.72;0.00;52281.28;5027682;28;20391;-70
2023/04/08 11:16:26;;;;;;;;;;;;;;;-140.72;0.00;52281.28;5035212;28;19917;-70
2023/04/08 11:18:52;;;;;;;;;;;;;;;-140.72;0.00;52285.34;5027561;28;19928;-71
2023/04/08 11:21:17;;;;;;;;;;;;;;;-140.72;0.00;52252.88;5033381;28;19932;-69
2023/04/08 11:23:42;;;;;;;;;;;;;;;-140.72;0.00;52189.97;5033101;28;19923;-70
2023/04/08 11:26:09;;;;;;;;;;;;;;;-140.72;0.00;52285.34;5032797;28;19989;-70
2023/04/08 11:28:34;;;;;;;;;;;;;;;-140.72;0.00;52173.75;5032458;28;19968;-69
2023/04/08 11:31:01;;;;;;;;;;;;;;;-140.72;0.00;52179.84;5031730;28;20013;-70
2023/04/08 11:33:29;;;;;;;;;;;;;;;-140.72;0.00;52214.34;5027109;28;20008;-70
2023/04/08 11:35:55;;;;;;;;;;;;;;;-140.72;0.00;52177.81;5034284;28;19931;-70
2023/04/08 11:38:21;;;;;;;;;;;;;;;-140.72;0.00;52183.91;5033026;28;19917;-71
2023/04/08 11:40:54;;;;;;;;;;;;;;;-140.72;0.00;52153.47;5040165;28;19916;-70
2023/04/08 11:43:19;;;;;;;;;;;;;;;-140.72;0.00;52183.91;5018260;28;20016;-71
2023/04/08 11:45:45;;;;;;;;;;;;;;;-140.72;0.00;52198.09;5032448;28;20020;-70
2023/04/08 11:48:10;;;;;;;;;;;;;;;-140.72;0.00;52200.13;5026864;28;19943;-70
2023/04/08 11:50:35;;;;;;;;;;;;;;;-140.72;0.00;52200.13;5027604;28;19970;-70
2023/04/08 11:53:00;;;;;;;;;;;;;;;-140.72;0.00;52104.75;5031074;28;19949;-70
2023/04/08 11:55:26;;;;;;;;;;;;;;;-140.72;0.00;52123.03;5032433;28;20398;-70
2023/04/08 11:57:52;;;;;;;;;;;;;;;-140.72;0.00;52220.41;5031412;28;19921;-70
2023/04/08 12:00:18;;;;;;;;;;;;;;;-140.72;0.00;52139.25;5031130;28;20379;-70
2023/04/08 12:02:43;;;;;;;;;;;;;;;-140.72;0.00;52165.63;5023607;28;19921;-70
2023/04/08 12:05:08;;;;;;;;;;;;;;;-140.72;0.00;52173.75;5021511;28;20001;-70
2023/04/08 12:07:34;;;;;;;;;;;;;;;-140.72;0.00;52149.41;5034329;27;19959;-70
2023/04/08 12:10:00;;;;;;;;;;;;;;;-140.72;0.00;52183.91;5032588;28;19917;-69
2023/04/08 12:12:25;;;;;;;;;;;;;;;-140.72;0.00;52131.16;5019529;28;19928;-69
2023/04/08 12:14:50;;;;;;;;;;;;;;;-140.72;0.00;52127.09;5029950;28;19921;-70
2023/04/08 12:17:15;;;;;;;;;;;;;;;-140.72;0.00;52098.69;5020648;28;19917;-71
2023/04/08 12:19:41;;;;;;;;;;;;;;;-140.72;0.00;52129.13;5031145;28;19925;-70